sensor_id;sensor_type;location;lat;lon;timestamp;pressure;altitude;pressure_sealevel;temperature;humidity
11692;BME280;33659;42.672;23.354;2022-08-21T00:01:28;93868.84;;;22.01;77.15
11692;BME280;33659;42.672;23.354;2022-08-21T00:03:55;93866.88;;;22.05;76.88
11692;BME280;33659;42.672;23.354;2022-08-21T00:06:23;93865.03;;;22.02;76.86
11692;BME280;33659;42.672;23.354;2022-08-21T00:08:50;93865.28;;;22.08;76.33
11692;BME280;33659;42.672;23.354;2022-08-21T00:11:17;93854.94;;;22.13;76.44
11692;BME280;33659;42.672;23.354;2022-08-21T00:13:44;93856.78;;;22.16;75.19
11692;BME280;33659;42.672;23.354;2022-08-21T00:16:11;93855.22;;;22.19;75.24
11692;BME280;33659;42.672;23.354;2022-08-21T00:18:38;93857.88;;;22.19;74.60
11692;BME280;33659;42.672;23.354;2022-08-21T00:21:05;93845.66;;;22.22;73.96
11692;BME280;33659;42.672;23.354;2022-08-21T00:23:34;93847.16;;;22.23;73.41
11692;BME280;33659;42.672;23.354;2022-08-21T00:26:01;93850.91;;;22.25;73.24
11692;BME280;33659;42.672;23.354;2022-08-21T00:28:28;93853.13;;;22.27;73.20
11692;BME280;33659;42.672;23.354;2022-08-21T00:30:55;93848.16;;;22.29;73.27
11692;BME280;33659;42.672;23.354;2022-08-21T00:33:21;93839.19;;;22.23;72.88
11692;BME280;33659;42.672;23.354;2022-08-21T00:35:48;93836.59;;;22.19;73.51
11692;BME280;33659;42.672;23.354;2022-08-21T00:38:15;93842.00;;;22.15;72.97
11692;BME280;33659;42.672;23.354;2022-08-21T00:40:45;93842.75;;;22.16;73.19
11692;BME280;33659;42.672;23.354;2022-08-21T00:43:15;93846.16;;;22.16;72.90
11692;BME280;33659;42.672;23.354;2022-08-21T00:45:42;93846.47;;;22.19;73.31
11692;BME280;33659;42.672;23.354;2022-08-21T00:48:09;93848.66;;;22.24;73.33
11692;BME280;33659;42.672;23.354;2022-08-21T00:50:40;93848.97;;;22.26;73.50
11692;BME280;33659;42.672;23.354;2022-08-21T00:53:10;93854.41;;;22.22;73.55
11692;BME280;33659;42.672;23.354;2022-08-21T00:55:39;93849.81;;;22.23;73.18
11692;BME280;33659;42.672;23.354;2022-08-21T00:58:09;93846.31;;;22.09;73.58
11692;BME280;33659;42.672;23.354;2022-08-21T01:00:40;93841.88;;;22.03;74.83
11692;BME280;33659;42.672;23.354;2022-08-21T01:03:12;93838.44;;;22.02;75.05
11692;BME280;33659;42.672;23.354;2022-08-21T01:05:40;93828.56;;;22.03;75.14
11692;BME280;33659;42.672;23.354;2022-08-21T01:08:08;93840.22;;;22.09;75.35
11692;BME280;33659;42.672;23.354;2022-08-21T01:10:36;93833.25;;;22.15;75.49
11692;BME280;33659;42.672;23.354;2022-08-21T01:13:04;93826.38;;;22.17;75.69
11692;BME280;33659;42.672;23.354;2022-08-21T01:15:36;93824.78;;;22.20;76.04
11692;BME280;33659;42.672;23.354;2022-08-21T01:18:07;93823.63;;;22.21;75.31
11692;BME280;33659;42.672;23.354;2022-08-21T01:20:35;93825.03;;;22.26;74.71
11692;BME280;33659;42.672;23.354;2022-08-21T01:23:05;93818.31;;;22.21;74.02
11692;BME280;33659;42.672;23.354;2022-08-21T01:25:34;93822.00;;;22.07;75.13
11692;BME280;33659;42.672;23.354;2022-08-21T01:28:04;93822.41;;;22.06;75.58
11692;BME280;33659;42.672;23.354;2022-08-21T01:30:34;93811.53;;;22.00;76.35
11692;BME280;33659;42.672;23.354;2022-08-21T01:33:01;93817.06;;;22.09;76.67
11692;BME280;33659;42.672;23.354;2022-08-21T01:35:29;93808.56;;;22.14;76.59
11692;BME280;33659;42.672;23.354;2022-08-21T01:37:55;93815.41;;;22.15;76.15
11692;BME280;33659;42.672;23.354;2022-08-21T01:40:23;93818.88;;;22.12;75.85
11692;BME280;33659;42.672;23.354;2022-08-21T01:42:50;93818.88;;;22.12;76.15
11692;BME280;33659;42.672;23.354;2022-08-21T01:45:18;93822.06;;;21.87;76.84
11692;BME280;33659;42.672;23.354;2022-08-21T01:47:46;93832.72;;;21.68;78.12
11692;BME280;33659;42.672;23.354;2022-08-21T01:50:15;93820.19;;;21.68;78.91
11692;BME280;33659;42.672;23.354;2022-08-21T01:52:42;93816.19;;;21.76;78.66
11692;BME280;33659;42.672;23.354;2022-08-21T01:55:10;93813.47;;;21.80;78.91
11692;BME280;33659;42.672;23.354;2022-08-21T01:57:38;93823.53;;;21.88;78.47
11692;BME280;33659;42.672;23.354;2022-08-21T02:00:08;93823.16;;;21.90;78.49
11692;BME280;33659;42.672;23.354;2022-08-21T02:02:37;93827.47;;;22.00;78.24
11692;BME280;33659;42.672;23.354;2022-08-21T02:05:04;93814.28;;;21.97;78.04
11692;BME280;33659;42.672;23.354;2022-08-21T02:07:36;93823.91;;;22.07;78.18
11692;BME280;33659;42.672;23.354;2022-08-21T02:10:05;93838.78;;;22.04;78.51
11692;BME280;33659;42.672;23.354;2022-08-21T02:12:32;93840.28;;;22.05;78.02
11692;BME280;33659;42.672;23.354;2022-08-21T02:15:00;93837.56;;;22.09;77.63
11692;BME280;33659;42.672;23.354;2022-08-21T02:17:27;93837.19;;;22.10;77.31
11692;BME280;33659;42.672;23.354;2022-08-21T02:20:03;93841.31;;;22.11;77.53
11692;BME280;33659;42.672;23.354;2022-08-21T02:22:30;93840.91;;;22.13;77.30
11692;BME280;33659;42.672;23.354;2022-08-21T02:24:56;93839.84;;;22.10;77.21
11692;BME280;33659;42.672;23.354;2022-08-21T02:27:24;93839.34;;;22.15;77.54
11692;BME280;33659;42.672;23.354;2022-08-21T02:29:51;93844.31;;;22.13;77.17
11692;BME280;33659;42.672;23.354;2022-08-21T02:32:19;93845.47;;;22.12;77.05
11692;BME280;33659;42.672;23.354;2022-08-21T02:34:46;93852.38;;;22.10;77.34
11692;BME280;33659;42.672;23.354;2022-08-21T02:37:14;93857.06;;;22.02;77.04
11692;BME280;33659;42.672;23.354;2022-08-21T02:39:40;93847.19;;;21.83;77.82
11692;BME280;33659;42.672;23.354;2022-08-21T02:42:07;93840.00;;;21.83;78.11
11692;BME280;33659;42.672;23.354;2022-08-21T02:44:34;93845.72;;;21.82;78.42
11692;BME280;33659;42.672;23.354;2022-08-21T02:47:00;93844.31;;;21.77;78.22
11692;BME280;33659;42.672;23.354;2022-08-21T02:49:28;93845.06;;;21.78;77.92
11692;BME280;33659;42.672;23.354;2022-08-21T02:51:55;93839.88;;;21.71;78.25
11692;BME280;33659;42.672;23.354;2022-08-21T02:54:23;93840.53;;;21.75;78.61
11692;BME280;33659;42.672;23.354;2022-08-21T02:56:50;93848.88;;;21.77;78.14
11692;BME280;33659;42.672;23.354;2022-08-21T02:59:16;93847.34;;;21.76;78.60
11692;BME280;33659;42.672;23.354;2022-08-21T03:01:43;93845.44;;;21.76;78.49
11692;BME280;33659;42.672;23.354;2022-08-21T03:04:10;93849.63;;;21.77;79.06
11692;BME280;33659;42.672;23.354;2022-08-21T03:06:38;93847.97;;;21.83;78.43
11692;BME280;33659;42.672;23.354;2022-08-21T03:09:05;93862.56;;;21.75;78.52
11692;BME280;33659;42.672;23.354;2022-08-21T03:11:31;93861.47;;;21.73;78.40
11692;BME280;33659;42.672;23.354;2022-08-21T03:13:58;93848.19;;;21.73;78.91
11692;BME280;33659;42.672;23.354;2022-08-21T03:16:25;93843.28;;;21.71;78.48
11692;BME280;33659;42.672;23.354;2022-08-21T03:18:51;93839.88;;;21.71;78.25
11692;BME280;33659;42.672;23.354;2022-08-21T03:21:18;93845.94;;;21.71;78.15
11692;BME280;33659;42.672;23.354;2022-08-21T03:23:46;93846.75;;;21.68;78.93
11692;BME280;33659;42.672;23.354;2022-08-21T03:26:13;93845.94;;;21.71;78.84
11692;BME280;33659;42.672;23.354;2022-08-21T03:28:40;93858.66;;;21.80;78.89
11692;BME280;33659;42.672;23.354;2022-08-21T03:31:06;93848.78;;;21.80;78.90
11692;BME280;33659;42.672;23.354;2022-08-21T03:33:34;93850.69;;;21.80;78.60
11692;BME280;33659;42.672;23.354;2022-08-21T03:36:03;93853.34;;;21.80;78.27
11692;BME280;33659;42.672;23.354;2022-08-21T03:38:31;93849.19;;;21.79;78.27
11692;BME280;33659;42.672;23.354;2022-08-21T03:41:00;93844.22;;;21.81;77.84
11692;BME280;33659;42.672;23.354;2022-08-21T03:43:28;93832.84;;;21.80;77.66
11692;BME280;33659;42.672;23.354;2022-08-21T03:45:55;93837.72;;;21.82;77.15
11692;BME280;33659;42.672;23.354;2022-08-21T03:48:22;93850.28;;;21.81;77.23
11692;BME280;33659;42.672;23.354;2022-08-21T03:50:51;93842.44;;;21.74;77.14
11692;BME280;33659;42.672;23.354;2022-08-21T03:53:18;93841.53;;;21.65;77.80
11692;BME280;33659;42.672;23.354;2022-08-21T03:55:46;93855.28;;;21.59;78.47
11692;BME280;33659;42.672;23.354;2022-08-21T03:58:15;93841.88;;;21.47;78.57
11692;BME280;33659;42.672;23.354;2022-08-21T04:00:44;93860.75;;;21.52;79.10
11692;BME280;33659;42.672;23.354;2022-08-21T04:03:11;93857.81;;;21.47;79.13
11692;BME280;33659;42.672;23.354;2022-08-21T04:05:38;93855.94;;;21.44;79.31
11692;BME280;33659;42.672;23.354;2022-08-21T04:08:05;93863.53;;;21.45;79.23
11692;BME280;33659;42.672;23.354;2022-08-21T04:10:33;93862.50;;;21.39;78.23
11692;BME280;33659;42.672;23.354;2022-08-21T04:13:01;93849.94;;;21.20;78.93
11692;BME280;33659;42.672;23.354;2022-08-21T04:15:29;93859.63;;;21.30;79.36
11692;BME280;33659;42.672;23.354;2022-08-21T04:17:56;93859.00;;;21.22;79.38
11692;BME280;33659;42.672;23.354;2022-08-21T04:20:23;93831.00;;;21.18;79.17
11692;BME280;33659;42.672;23.354;2022-08-21T04:22:50;93848.31;;;21.26;79.21
11692;BME280;33659;42.672;23.354;2022-08-21T04:25:19;93849.28;;;21.35;78.63
11692;BME280;33659;42.672;23.354;2022-08-21T04:27:46;93853.38;;;21.40;78.59
11692;BME280;33659;42.672;23.354;2022-08-21T04:30:15;93855.81;;;21.51;77.64
11692;BME280;33659;42.672;23.354;2022-08-21T04:32:44;93858.59;;;21.44;78.07
11692;BME280;33659;42.672;23.354;2022-08-21T04:35:12;93855.69;;;21.38;78.48
11692;BME280;33659;42.672;23.354;2022-08-21T04:37:39;93854.69;;;21.32;78.30
11692;BME280;33659;42.672;23.354;2022-08-21T04:40:08;93853.94;;;21.28;78.46
11692;BME280;33659;42.672;23.354;2022-08-21T04:42:42;93853.94;;;21.28;78.17
11692;BME280;33659;42.672;23.354;2022-08-21T04:45:09;93854.31;;;21.30;77.94
11692;BME280;33659;42.672;23.354;2022-08-21T04:47:36;93856.63;;;21.28;78.30
11692;BME280;33659;42.672;23.354;2022-08-21T04:50:05;93855.09;;;21.07;78.10
11692;BME280;33659;42.672;23.354;2022-08-21T04:52:32;93861.16;;;20.84;79.28
11692;BME280;33659;42.672;23.354;2022-08-21T04:54:58;93863.97;;;20.73;80.17
11692;BME280;33659;42.672;23.354;2022-08-21T04:57:27;93851.53;;;20.70;80.54
11692;BME280;33659;42.672;23.354;2022-08-21T04:59:53;93844.19;;;20.78;81.03
11692;BME280;33659;42.672;23.354;2022-08-21T05:02:20;93848.22;;;20.86;81.00
11692;BME280;33659;42.672;23.354;2022-08-21T05:04:49;93846.44;;;21.03;80.04
11692;BME280;33659;42.672;23.354;2022-08-21T05:07:20;93850.31;;;21.18;79.63
11692;BME280;33659;42.672;23.354;2022-08-21T05:09:48;93849.00;;;21.30;79.14
11692;BME280;33659;42.672;23.354;2022-08-21T05:12:15;93853.94;;;21.51;78.54
11692;BME280;33659;42.672;23.354;2022-08-21T05:14:42;93858.13;;;21.69;77.95
11692;BME280;33659;42.672;23.354;2022-08-21T05:17:09;93857.84;;;21.83;77.59
11692;BME280;33659;42.672;23.354;2022-08-21T05:19:36;93858.91;;;22.05;76.47
11692;BME280;33659;42.672;23.354;2022-08-21T05:22:03;93855.53;;;22.21;75.48
11692;BME280;33659;42.672;23.354;2022-08-21T05:24:31;93856.47;;;22.31;74.69
11692;BME280;33659;42.672;23.354;2022-08-21T05:26:58;93854.81;;;22.37;74.69
11692;BME280;33659;42.672;23.354;2022-08-21T05:29:25;93858.50;;;22.43;74.44
11692;BME280;33659;42.672;23.354;2022-08-21T05:31:52;93853.41;;;22.49;73.98
11692;BME280;33659;42.672;23.354;2022-08-21T05:34:21;93864.38;;;22.51;72.77
11692;BME280;33659;42.672;23.354;2022-08-21T05:36:48;93852.81;;;22.41;73.09
11692;BME280;33659;42.672;23.354;2022-08-21T05:39:15;93853.50;;;22.45;73.62
11692;BME280;33659;42.672;23.354;2022-08-21T05:41:43;93850.16;;;22.57;73.39
11692;BME280;33659;42.672;23.354;2022-08-21T05:44:10;93850.50;;;22.59;73.62
11692;BME280;33659;42.672;23.354;2022-08-21T05:46:36;93849.19;;;22.67;73.12
11692;BME280;33659;42.672;23.354;2022-08-21T05:49:03;93842.19;;;22.74;72.43
11692;BME280;33659;42.672;23.354;2022-08-21T05:51:30;93842.25;;;22.70;73.23
11692;BME280;33659;42.672;23.354;2022-08-21T05:53:56;93836.50;;;22.71;72.86
11692;BME280;33659;42.672;23.354;2022-08-21T05:56:23;93840.66;;;22.73;72.41
11692;BME280;33659;42.672;23.354;2022-08-21T05:58:51;93841.50;;;22.69;72.86
11692;BME280;33659;42.672;23.354;2022-08-21T06:01:18;93845.59;;;22.74;72.54
11692;BME280;33659;42.672;23.354;2022-08-21T06:03:45;93850.66;;;22.68;72.56
11692;BME280;33659;42.672;23.354;2022-08-21T06:06:12;93850.31;;;22.66;72.63
11692;BME280;33659;42.672;23.354;2022-08-21T06:08:38;93850.66;;;22.68;72.66
11692;BME280;33659;42.672;23.354;2022-08-21T06:11:06;93846.75;;;22.73;72.54
11692;BME280;33659;42.672;23.354;2022-08-21T06:13:33;93839.34;;;22.81;72.78
11692;BME280;33659;42.672;23.354;2022-08-21T06:16:04;93841.69;;;22.95;72.56
11692;BME280;33659;42.672;23.354;2022-08-21T06:18:31;93844.28;;;23.11;72.29
11692;BME280;33659;42.672;23.354;2022-08-21T06:20:58;93843.09;;;23.29;71.56
11692;BME280;33659;42.672;23.354;2022-08-21T06:23:25;93846.88;;;23.44;71.69
11692;BME280;33659;42.672;23.354;2022-08-21T06:25:52;93841.03;;;23.49;71.39
11692;BME280;33659;42.672;23.354;2022-08-21T06:28:19;93844.59;;;23.30;71.36
11692;BME280;33659;42.672;23.354;2022-08-21T06:30:45;93841.19;;;23.29;72.05
11692;BME280;33659;42.672;23.354;2022-08-21T06:33:13;93840.00;;;23.30;72.12
11692;BME280;33659;42.672;23.354;2022-08-21T06:35:40;93847.41;;;23.39;71.62
11692;BME280;33659;42.672;23.354;2022-08-21T06:38:08;93843.38;;;23.47;71.36
11692;BME280;33659;42.672;23.354;2022-08-21T06:40:34;93850.75;;;23.56;70.56
11692;BME280;33659;42.672;23.354;2022-08-21T06:43:07;93853.66;;;23.61;69.87
11692;BME280;33659;42.672;23.354;2022-08-21T06:45:35;93850.00;;;23.55;69.54
11692;BME280;33659;42.672;23.354;2022-08-21T06:48:02;93846.59;;;23.55;69.62
11692;BME280;33659;42.672;23.354;2022-08-21T06:50:30;93844.88;;;23.48;69.76
11692;BME280;33659;42.672;23.354;2022-08-21T06:52:59;93863.28;;;23.42;69.81
11692;BME280;33659;42.672;23.354;2022-08-21T06:55:26;93850.16;;;23.35;69.26
11692;BME280;33659;42.672;23.354;2022-08-21T06:57:54;93854.22;;;23.40;69.05
11692;BME280;33659;42.672;23.354;2022-08-21T07:00:20;93861.56;;;23.36;68.93
11692;BME280;33659;42.672;23.354;2022-08-21T07:02:47;93867.78;;;23.45;68.72
11692;BME280;33659;42.672;23.354;2022-08-21T07:05:14;93866.09;;;23.51;68.43
11692;BME280;33659;42.672;23.354;2022-08-21T07:07:42;93865.81;;;23.62;68.54
11692;BME280;33659;42.672;23.354;2022-08-21T07:10:09;93848.28;;;23.77;68.03
11692;BME280;33659;42.672;23.354;2022-08-21T07:12:36;93852.44;;;23.78;68.26
11692;BME280;33659;42.672;23.354;2022-08-21T07:15:04;93849.75;;;23.78;67.85
11692;BME280;33659;42.672;23.354;2022-08-21T07:17:31;93857.31;;;23.67;67.45
11692;BME280;33659;42.672;23.354;2022-08-21T07:19:57;93867.41;;;23.60;67.47
11692;BME280;33659;42.672;23.354;2022-08-21T07:22:24;93859.75;;;23.62;67.08
11692;BME280;33659;42.672;23.354;2022-08-21T07:24:54;93861.22;;;23.63;67.06
11692;BME280;33659;42.672;23.354;2022-08-21T07:27:21;93865.31;;;23.67;66.86
11692;BME280;33659;42.672;23.354;2022-08-21T07:29:47;93856.13;;;23.68;67.07
11692;BME280;33659;42.672;23.354;2022-08-21T07:32:14;93852.44;;;23.78;67.13
11692;BME280;33659;42.672;23.354;2022-08-21T07:34:41;93844.13;;;23.76;67.06
11692;BME280;33659;42.672;23.354;2022-08-21T07:37:08;93844.31;;;23.82;66.98
11692;BME280;33659;42.672;23.354;2022-08-21T07:39:34;93837.72;;;23.87;66.00
11692;BME280;33659;42.672;23.354;2022-08-21T07:42:03;93841.56;;;23.86;65.45
11692;BME280;33659;42.672;23.354;2022-08-21T07:44:30;93845.63;;;23.90;64.93
11692;BME280;33659;42.672;23.354;2022-08-21T07:46:56;93841.66;;;23.82;65.06
11692;BME280;33659;42.672;23.354;2022-08-21T07:49:23;93836.75;;;23.93;64.68
11692;BME280;33659;42.672;23.354;2022-08-21T07:51:50;93829.63;;;24.03;64.22
11692;BME280;33659;42.672;23.354;2022-08-21T07:54:17;93835.50;;;24.11;63.83
11692;BME280;33659;42.672;23.354;2022-08-21T07:56:43;93829.81;;;24.21;63.68
11692;BME280;33659;42.672;23.354;2022-08-21T07:59:12;93831.44;;;24.31;63.32
11692;BME280;33659;42.672;23.354;2022-08-21T08:01:39;93837.75;;;24.38;63.69
11692;BME280;33659;42.672;23.354;2022-08-21T08:04:05;93836.16;;;24.40;64.52
11692;BME280;33659;42.672;23.354;2022-08-21T08:06:32;93828.88;;;24.41;65.19
11692;BME280;33659;42.672;23.354;2022-08-21T08:08:59;93829.44;;;24.36;64.19
11692;BME280;33659;42.672;23.354;2022-08-21T08:11:28;93835.50;;;24.23;64.58
11692;BME280;33659;42.672;23.354;2022-08-21T08:13:54;93851.09;;;24.25;64.17
11692;BME280;33659;42.672;23.354;2022-08-21T08:16:24;93841.91;;;24.13;64.41
11692;BME280;33659;42.672;23.354;2022-08-21T08:18:50;93842.97;;;24.03;65.24
11692;BME280;33659;42.672;23.354;2022-08-21T08:21:17;93836.75;;;23.93;66.45
11692;BME280;33659;42.672;23.354;2022-08-21T08:23:46;93822.25;;;23.82;66.38
11692;BME280;33659;42.672;23.354;2022-08-21T08:26:13;93843.38;;;23.89;65.75
11692;BME280;33659;42.672;23.354;2022-08-21T08:28:41;93837.94;;;23.80;65.60
11692;BME280;33659;42.672;23.354;2022-08-21T08:31:08;93839.84;;;23.79;66.10
11692;BME280;33659;42.672;23.354;2022-08-21T08:33:36;93834.81;;;23.81;66.57
11692;BME280;33659;42.672;23.354;2022-08-21T08:36:03;93840.69;;;23.89;66.15
11692;BME280;33659;42.672;23.354;2022-08-21T08:38:30;93851.50;;;23.98;65.72
11692;BME280;33659;42.672;23.354;2022-08-21T08:41:02;93844.47;;;24.04;65.46
11692;BME280;33659;42.672;23.354;2022-08-21T08:43:34;93844.56;;;24.13;65.23
11692;BME280;33659;42.672;23.354;2022-08-21T08:46:03;93847.34;;;24.22;64.96
11692;BME280;33659;42.672;23.354;2022-08-21T08:48:43;93847.22;;;24.26;64.68
11692;BME280;33659;42.672;23.354;2022-08-21T08:51:16;93837.31;;;24.26;64.30
11692;BME280;33659;42.672;23.354;2022-08-21T08:53:50;93834.09;;;24.31;64.24
11692;BME280;33659;42.672;23.354;2022-08-21T08:56:26;93828.56;;;24.39;64.22
11692;BME280;33659;42.672;23.354;2022-08-21T08:58:57;93830.72;;;24.44;64.40
11692;BME280;33659;42.672;23.354;2022-08-21T09:01:25;93825.38;;;24.44;63.92
11692;BME280;33659;42.672;23.354;2022-08-21T09:03:53;93829.53;;;24.45;63.22
11692;BME280;33659;42.672;23.354;2022-08-21T09:06:28;93824.47;;;24.59;63.12
11692;BME280;33659;42.672;23.354;2022-08-21T09:09:06;93824.28;;;24.67;62.60
11692;BME280;33659;42.672;23.354;2022-08-21T09:11:44;93816.22;;;24.79;62.58
11692;BME280;33659;42.672;23.354;2022-08-21T09:14:18;93811.94;;;24.82;62.06
11692;BME280;33659;42.672;23.354;2022-08-21T09:16:56;93811.09;;;24.72;61.66
11692;BME280;33659;42.672;23.354;2022-08-21T09:19:46;93810.28;;;24.63;62.10
11692;BME280;33659;42.672;23.354;2022-08-21T09:22:23;93813.25;;;24.65;62.36
11692;BME280;33659;42.672;23.354;2022-08-21T09:25:02;93804.03;;;24.78;62.60
11692;BME280;33659;42.672;23.354;2022-08-21T09:27:35;93800.69;;;25.00;62.30
11692;BME280;33659;42.672;23.354;2022-08-21T09:30:04;93788.88;;;25.10;61.97
11692;BME280;33659;42.672;23.354;2022-08-21T09:32:32;93799.09;;;25.24;61.08
11692;BME280;33659;42.672;23.354;2022-08-21T09:35:06;93802.63;;;25.21;61.05
11692;BME280;33659;42.672;23.354;2022-08-21T09:37:44;93801.59;;;25.19;61.27
11692;BME280;33659;42.672;23.354;2022-08-21T09:40:29;93799.03;;;25.15;60.63
11692;BME280;33659;42.672;23.354;2022-08-21T09:42:58;93800.16;;;24.92;60.71
11692;BME280;33659;42.672;23.354;2022-08-21T09:45:25;93797.38;;;24.61;61.74
11692;BME280;33659;42.672;23.354;2022-08-21T09:47:52;93791.94;;;24.26;63.24
11692;BME280;33659;42.672;23.354;2022-08-21T09:50:22;93786.22;;;24.02;63.84
11692;BME280;33659;42.672;23.354;2022-08-21T09:52:51;93793.88;;;24.00;64.26
11692;BME280;33659;42.672;23.354;2022-08-21T09:55:26;93791.63;;;23.99;64.60
11692;BME280;33659;42.672;23.354;2022-08-21T09:58:13;93793.03;;;24.03;64.48
11692;BME280;33659;42.672;23.354;2022-08-21T10:00:41;93788.97;;;24.12;64.50
11692;BME280;33659;42.672;23.354;2022-08-21T10:03:11;93788.66;;;24.22;64.67
11692;BME280;33659;42.672;23.354;2022-08-21T10:05:50;93771.56;;;24.20;63.95
11692;BME280;33659;42.672;23.354;2022-08-21T10:08:18;93784.16;;;24.45;63.52
11692;BME280;33659;42.672;23.354;2022-08-21T10:10:45;93785.03;;;24.42;63.22
11692;BME280;33659;42.672;23.354;2022-08-21T10:13:19;93768.38;;;24.38;63.69
11692;BME280;33659;42.672;23.354;2022-08-21T10:15:51;93774.50;;;24.60;62.86
11692;BME280;33659;42.672;23.354;2022-08-21T10:18:26;93781.13;;;24.68;62.09
11692;BME280;33659;42.672;23.354;2022-08-21T10:21:01;93773.53;;;24.67;62.31
11692;BME280;33659;42.672;23.354;2022-08-21T10:23:41;93769.44;;;24.75;61.71
11692;BME280;33659;42.672;23.354;2022-08-21T10:26:22;93768.13;;;24.79;61.43
11692;BME280;33659;42.672;23.354;2022-08-21T10:28:55;93765.88;;;24.91;61.16
11692;BME280;33659;42.672;23.354;2022-08-21T10:31:33;93764.75;;;25.01;60.62
11692;BME280;33659;42.672;23.354;2022-08-21T10:34:15;93758.69;;;25.00;60.74
11692;BME280;33659;42.672;23.354;2022-08-21T10:36:54;93760.72;;;24.96;60.84
11692;BME280;33659;42.672;23.354;2022-08-21T10:39:28;93758.78;;;24.97;60.73
11692;BME280;33659;42.672;23.354;2022-08-21T10:42:10;93760.06;;;25.05;60.66
11692;BME280;33659;42.672;23.354;2022-08-21T10:44:49;93745.28;;;25.13;60.22
11692;BME280;33659;42.672;23.354;2022-08-21T10:47:30;93747.75;;;25.29;60.30
11692;BME280;33659;42.672;23.354;2022-08-21T10:50:07;93755.63;;;25.55;59.84
11692;BME280;33659;42.672;23.354;2022-08-21T10:52:48;93744.72;;;25.71;59.21
11692;BME280;33659;42.672;23.354;2022-08-21T10:55:19;93744.97;;;25.95;58.84
11692;BME280;33659;42.672;23.354;2022-08-21T10:57:50;93736.97;;;26.04;58.52
11692;BME280;33659;42.672;23.354;2022-08-21T11:00:22;93731.34;;;26.02;57.99
11692;BME280;33659;42.672;23.354;2022-08-21T11:02:52;93730.94;;;26.22;57.63
11692;BME280;33659;42.672;23.354;2022-08-21T11:05:26;93724.66;;;26.16;57.44
11692;BME280;33659;42.672;23.354;2022-08-21T11:08:02;93725.88;;;26.24;57.67
11692;BME280;33659;42.672;23.354;2022-08-21T11:10:38;93717.44;;;26.44;57.17
11692;BME280;33659;42.672;23.354;2022-08-21T11:13:11;93712.84;;;26.63;56.06
11692;BME280;33659;42.672;23.354;2022-08-21T11:15:44;93708.53;;;26.75;56.12
11692;BME280;33659;42.672;23.354;2022-08-21T11:18:19;93711.81;;;26.88;55.19
11692;BME280;33659;42.672;23.354;2022-08-21T11:21:02;93688.47;;;26.61;55.26
11692;BME280;33659;42.672;23.354;2022-08-21T11:23:38;93702.13;;;26.72;54.99
11692;BME280;33659;42.672;23.354;2022-08-21T11:26:09;93703.63;;;26.73;55.54
11692;BME280;33659;42.672;23.354;2022-08-21T11:28:48;93704.22;;;26.86;54.51
11692;BME280;33659;42.672;23.354;2022-08-21T11:31:30;93698.41;;;26.88;53.99
11692;BME280;33659;42.672;23.354;2022-08-21T11:34:19;93698.41;;;26.88;53.29
11692;BME280;33659;42.672;23.354;2022-08-21T11:36:53;93696.94;;;26.68;54.21
11692;BME280;33659;42.672;23.354;2022-08-21T11:39:33;93701.53;;;26.59;54.14
11692;BME280;33659;42.672;23.354;2022-08-21T11:42:08;93700.63;;;26.43;54.82
11692;BME280;33659;42.672;23.354;2022-08-21T11:44:48;93701.03;;;26.33;55.24
11692;BME280;33659;42.672;23.354;2022-08-21T11:47:23;93693.00;;;26.33;55.66
11692;BME280;33659;42.672;23.354;2022-08-21T11:50:05;93701.03;;;26.33;56.11
11692;BME280;33659;42.672;23.354;2022-08-21T11:52:39;93693.28;;;26.26;56.41
11692;BME280;33659;42.672;23.354;2022-08-21T11:55:12;93698.06;;;26.22;56.62
11692;BME280;33659;42.672;23.354;2022-08-21T11:57:48;93686.47;;;26.15;55.75
11692;BME280;33659;42.672;23.354;2022-08-21T12:00:19;93699.06;;;26.06;55.77
11692;BME280;33659;42.672;23.354;2022-08-21T12:02:51;93691.56;;;25.82;55.78
11692;BME280;33659;42.672;23.354;2022-08-21T12:05:30;93686.72;;;25.59;56.57
11692;BME280;33659;42.672;23.354;2022-08-21T12:08:05;93686.06;;;25.46;56.29
11692;BME280;33659;42.672;23.354;2022-08-21T12:10:36;93670.88;;;25.43;55.23
11692;BME280;33659;42.672;23.354;2022-08-21T12:13:09;93667.19;;;25.40;55.22
11692;BME280;33659;42.672;23.354;2022-08-21T12:15:37;93669.69;;;25.34;56.38
11692;BME280;33659;42.672;23.354;2022-08-21T12:18:06;93659.38;;;25.24;56.73
11692;BME280;33659;42.672;23.354;2022-08-21T12:21:02;93654.47;;;25.22;56.20
11692;BME280;33659;42.672;23.354;2022-08-21T12:23:32;93689.56;;;25.33;56.77
11692;BME280;33659;42.672;23.354;2022-08-21T12:26:18;93688.69;;;25.36;55.91
11692;BME280;33659;42.672;23.354;2022-08-21T12:28:47;93685.09;;;25.30;55.90
11692;BME280;33659;42.672;23.354;2022-08-21T12:31:22;93693.06;;;25.21;56.17
11692;BME280;33659;42.672;23.354;2022-08-21T12:33:54;93691.22;;;25.09;56.21
11692;BME280;33659;42.672;23.354;2022-08-21T12:36:24;93688.16;;;24.98;56.53
11692;BME280;33659;42.672;23.354;2022-08-21T12:38:54;93682.75;;;24.89;56.64
11692;BME280;33659;42.672;23.354;2022-08-21T12:41:27;93672.94;;;24.85;56.47
11692;BME280;33659;42.672;23.354;2022-08-21T12:43:57;93680.94;;;24.85;56.59
11692;BME280;33659;42.672;23.354;2022-08-21T12:46:31;93674.56;;;24.83;56.61
11692;BME280;33659;42.672;23.354;2022-08-21T12:49:02;93674.56;;;24.83;57.07
11692;BME280;33659;42.672;23.354;2022-08-21T12:51:46;93675.94;;;24.88;57.28
11692;BME280;33659;42.672;23.354;2022-08-21T12:54:23;93676.47;;;24.82;56.47
11692;BME280;33659;42.672;23.354;2022-08-21T12:56:58;93678.78;;;24.71;56.93
11692;BME280;33659;42.672;23.354;2022-08-21T12:59:26;93675.97;;;24.53;57.57
11692;BME280;33659;42.672;23.354;2022-08-21T13:01:53;93673.53;;;24.46;58.15
11692;BME280;33659;42.672;23.354;2022-08-21T13:04:33;93645.31;;;24.23;58.49